sensor_id;sensor_type;location;lat;lon;timestamp;P1;durP1;ratioP1;P2;durP2;ratioP2
4819;SDS011;2424;49.696;6.630;2023-04-09T00:01:02;2.83;;;2.33;;
4819;SDS011;2424;49.696;6.630;2023-04-09T00:06:26;3.43;;;3.17;;
4819;SDS011;2424;49.696;6.630;2023-04-09T00:11:48;3.37;;;2.80;;
4819;SDS011;2424;49.696;6.630;2023-04-09T00:17:10;3.50;;;2.57;;
4819;SDS011;2424;49.696;6.630;2023-04-09T00:22:33;3.07;;;2.63;;
4819;SDS011;2424;49.696;6.630;2023-04-09T00:27:55;4.87;;;3.20;;
4819;SDS011;2424;49.696;6.630;2023-04-09T00:33:18;3.53;;;2.80;;
4819;SDS011;2424;49.696;6.630;2023-04-09T00:38:41;3.63;;;2.57;;
4819;SDS011;2424;49.696;6.630;2023-04-09T00:44:03;3.50;;;2.83;;
4819;SDS011;2424;49.696;6.630;2023-04-09T00:49:25;3.53;;;2.67;;
4819;SDS011;2424;49.696;6.630;2023-04-09T00:54:49;3.23;;;2.93;;
4819;SDS011;2424;49.696;6.630;2023-04-09T01:00:12;3.77;;;3.33;;
4819;SDS011;2424;49.696;6.630;2023-04-09T01:05:37;3.67;;;3.00;;
4819;SDS011;2424;49.696;6.630;2023-04-09T01:11:08;4.67;;;3.40;;
4819;SDS011;2424;49.696;6.630;2023-04-09T01:16:36;5.43;;;3.30;;
4819;SDS011;2424;49.696;6.630;2023-04-09T01:22:01;2.33;;;2.13;;
4819;SDS011;2424;49.696;6.630;2023-04-09T01:27:28;8.17;;;2.37;;
4819;SDS011;2424;49.696;6.630;2023-04-09T01:32:59;2.13;;;1.93;;
4819;SDS011;2424;49.696;6.630;2023-04-09T01:38:24;3.53;;;2.53;;
4819;SDS011;2424;49.696;6.630;2023-04-09T01:43:47;3.80;;;2.57;;
4819;SDS011;2424;49.696;6.630;2023-04-09T01:49:12;2.67;;;2.10;;
4819;SDS011;2424;49.696;6.630;2023-04-09T01:54:34;2.03;;;1.93;;
4819;SDS011;2424;49.696;6.630;2023-04-09T01:59:56;2.90;;;2.60;;
4819;SDS011;2424;49.696;6.630;2023-04-09T02:05:20;2.30;;;2.10;;
4819;SDS011;2424;49.696;6.630;2023-04-09T02:10:48;2.10;;;2.00;;
4819;SDS011;2424;49.696;6.630;2023-04-09T02:16:14;1.70;;;1.60;;
4819;SDS011;2424;49.696;6.630;2023-04-09T02:21:38;2.30;;;1.57;;
4819;SDS011;2424;49.696;6.630;2023-04-09T02:27:00;5.03;;;1.90;;
4819;SDS011;2424;49.696;6.630;2023-04-09T02:32:23;2.60;;;2.13;;
4819;SDS011;2424;49.696;6.630;2023-04-09T02:37:47;2.73;;;1.93;;
4819;SDS011;2424;49.696;6.630;2023-04-09T02:43:09;2.10;;;2.00;;
4819;SDS011;2424;49.696;6.630;2023-04-09T02:48:31;1.73;;;1.60;;
4819;SDS011;2424;49.696;6.630;2023-04-09T02:53:54;2.03;;;1.70;;
4819;SDS011;2424;49.696;6.630;2023-04-09T02:59:16;2.23;;;2.03;;
4819;SDS011;2424;49.696;6.630;2023-04-09T03:04:38;3.17;;;2.87;;
4819;SDS011;2424;49.696;6.630;2023-04-09T03:10:01;4.37;;;2.53;;
4819;SDS011;2424;49.696;6.630;2023-04-09T03:15:24;3.60;;;2.73;;
4819;SDS011;2424;49.696;6.630;2023-04-09T03:20:45;3.70;;;3.20;;
4819;SDS011;2424;49.696;6.630;2023-04-09T03:26:09;5.93;;;2.53;;
4819;SDS011;2424;49.696;6.630;2023-04-09T03:31:31;4.20;;;3.30;;
4819;SDS011;2424;49.696;6.630;2023-04-09T03:36:53;2.23;;;2.13;;
4819;SDS011;2424;49.696;6.630;2023-04-09T03:42:16;2.37;;;2.20;;
4819;SDS011;2424;49.696;6.630;2023-04-09T03:47:39;3.60;;;2.77;;
4819;SDS011;2424;49.696;6.630;2023-04-09T03:53:01;2.30;;;2.20;;
4819;SDS011;2424;49.696;6.630;2023-04-09T03:58:24;2.73;;;2.53;;
4819;SDS011;2424;49.696;6.630;2023-04-09T04:03:46;2.60;;;2.20;;
4819;SDS011;2424;49.696;6.630;2023-04-09T04:09:08;2.63;;;2.43;;
4819;SDS011;2424;49.696;6.630;2023-04-09T04:14:31;3.10;;;2.80;;
4819;SDS011;2424;49.696;6.630;2023-04-09T04:19:53;4.57;;;2.90;;
4819;SDS011;2424;49.696;6.630;2023-04-09T04:25:15;3.13;;;2.93;;
4819;SDS011;2424;49.696;6.630;2023-04-09T04:30:41;4.27;;;3.00;;
4819;SDS011;2424;49.696;6.630;2023-04-09T04:36:04;2.40;;;2.20;;
4819;SDS011;2424;49.696;6.630;2023-04-09T04:41:27;3.93;;;2.83;;
4819;SDS011;2424;49.696;6.630;2023-04-09T04:46:50;3.60;;;3.20;;
4819;SDS011;2424;49.696;6.630;2023-04-09T04:52:12;2.73;;;2.47;;
4819;SDS011;2424;49.696;6.630;2023-04-09T04:57:34;6.20;;;2.37;;
4819;SDS011;2424;49.696;6.630;2023-04-09T05:02:57;2.67;;;2.47;;
4819;SDS011;2424;49.696;6.630;2023-04-09T05:08:19;6.07;;;3.10;;
4819;SDS011;2424;49.696;6.630;2023-04-09T05:13:41;3.80;;;2.97;;
4819;SDS011;2424;49.696;6.630;2023-04-09T05:19:04;3.13;;;2.23;;
4819;SDS011;2424;49.696;6.630;2023-04-09T05:24:26;3.00;;;2.73;;
4819;SDS011;2424;49.696;6.630;2023-04-09T05:29:48;9.87;;;3.10;;
4819;SDS011;2424;49.696;6.630;2023-04-09T05:35:11;3.43;;;2.50;;
4819;SDS011;2424;49.696;6.630;2023-04-09T05:40:33;3.23;;;2.30;;
4819;SDS011;2424;49.696;6.630;2023-04-09T05:45:55;9.40;;;3.00;;
4819;SDS011;2424;49.696;6.630;2023-04-09T05:51:18;4.27;;;2.60;;
4819;SDS011;2424;49.696;6.630;2023-04-09T05:56:41;6.03;;;3.53;;
4819;SDS011;2424;49.696;6.630;2023-04-09T06:02:03;3.37;;;2.83;;
4819;SDS011;2424;49.696;6.630;2023-04-09T06:07:26;7.93;;;3.63;;
4819;SDS011;2424;49.696;6.630;2023-04-09T06:12:48;4.23;;;3.73;;
4819;SDS011;2424;49.696;6.630;2023-04-09T06:18:10;3.20;;;3.00;;
4819;SDS011;2424;49.696;6.630;2023-04-09T06:23:34;6.80;;;3.37;;
4819;SDS011;2424;49.696;6.630;2023-04-09T06:28:56;6.97;;;4.10;;
4819;SDS011;2424;49.696;6.630;2023-04-09T06:34:18;6.10;;;3.50;;
4819;SDS011;2424;49.696;6.630;2023-04-09T06:39:41;2.70;;;2.47;;
4819;SDS011;2424;49.696;6.630;2023-04-09T06:45:04;2.70;;;2.13;;
4819;SDS011;2424;49.696;6.630;2023-04-09T06:50:27;5.30;;;3.53;;
4819;SDS011;2424;49.696;6.630;2023-04-09T06:55:51;6.23;;;3.37;;
4819;SDS011;2424;49.696;6.630;2023-04-09T07:01:13;4.33;;;3.73;;
4819;SDS011;2424;49.696;6.630;2023-04-09T07:06:36;5.40;;;3.40;;
4819;SDS011;2424;49.696;6.630;2023-04-09T07:12:00;3.93;;;3.23;;
4819;SDS011;2424;49.696;6.630;2023-04-09T07:17:22;6.03;;;2.77;;
4819;SDS011;2424;49.696;6.630;2023-04-09T07:22:44;6.23;;;3.43;;
4819;SDS011;2424;49.696;6.630;2023-04-09T07:28:08;2.97;;;2.30;;
4819;SDS011;2424;49.696;6.630;2023-04-09T07:33:30;3.87;;;2.80;;
4819;SDS011;2424;49.696;6.630;2023-04-09T07:38:52;5.63;;;3.23;;
4819;SDS011;2424;49.696;6.630;2023-04-09T07:44:15;2.90;;;2.27;;
4819;SDS011;2424;49.696;6.630;2023-04-09T07:49:37;2.70;;;2.50;;
4819;SDS011;2424;49.696;6.630;2023-04-09T07:54:59;2.33;;;2.20;;
4819;SDS011;2424;49.696;6.630;2023-04-09T08:00:23;2.40;;;2.20;;
4819;SDS011;2424;49.696;6.630;2023-04-09T08:05:45;2.60;;;2.40;;
4819;SDS011;2424;49.696;6.630;2023-04-09T08:11:07;3.33;;;2.17;;
4819;SDS011;2424;49.696;6.630;2023-04-09T08:16:30;1.67;;;1.57;;
4819;SDS011;2424;49.696;6.630;2023-04-09T08:21:52;1.57;;;1.47;;
4819;SDS011;2424;49.696;6.630;2023-04-09T08:27:14;1.83;;;1.60;;
4819;SDS011;2424;49.696;6.630;2023-04-09T08:32:38;1.63;;;1.53;;
4819;SDS011;2424;49.696;6.630;2023-04-09T08:38:00;1.53;;;1.40;;
4819;SDS011;2424;49.696;6.630;2023-04-09T08:43:22;1.23;;;1.17;;
4819;SDS011;2424;49.696;6.630;2023-04-09T08:48:49;1.20;;;0.90;;
4819;SDS011;2424;49.696;6.630;2023-04-09T08:54:13;1.47;;;1.00;;
4819;SDS011;2424;49.696;6.630;2023-04-09T08:59:36;1.83;;;1.70;;
4819;SDS011;2424;49.696;6.630;2023-04-09T09:04:59;0.80;;;0.80;;
4819;SDS011;2424;49.696;6.630;2023-04-09T09:10:21;0.63;;;0.63;;
4819;SDS011;2424;49.696;6.630;2023-04-09T09:16:10;0.40;;;0.40;;
4819;SDS011;2424;49.696;6.630;2023-04-09T09:21:34;0.70;;;0.67;;
4819;SDS011;2424;49.696;6.630;2023-04-09T09:26:57;0.80;;;0.80;;
4819;SDS011;2424;49.696;6.630;2023-04-09T09:32:19;1.80;;;1.70;;
4819;SDS011;2424;49.696;6.630;2023-04-09T09:37:44;1.67;;;1.57;;
4819;SDS011;2424;49.696;6.630;2023-04-09T09:43:06;2.80;;;1.47;;
4819;SDS011;2424;49.696;6.630;2023-04-09T09:48:28;3.17;;;2.03;;
4819;SDS011;2424;49.696;6.630;2023-04-09T09:53:53;2.47;;;2.07;;
4819;SDS011;2424;49.696;6.630;2023-04-09T09:59:18;1.87;;;1.77;;
4819;SDS011;2424;49.696;6.630;2023-04-09T10:04:41;1.07;;;1.07;;
4819;SDS011;2424;49.696;6.630;2023-04-09T10:10:06;1.30;;;1.20;;
4819;SDS011;2424;49.696;6.630;2023-04-09T10:15:29;2.23;;;2.10;;
4819;SDS011;2424;49.696;6.630;2023-04-09T10:20:53;1.67;;;1.57;;
4819;SDS011;2424;49.696;6.630;2023-04-09T10:26:20;1.10;;;1.10;;
4819;SDS011;2424;49.696;6.630;2023-04-09T10:31:47;1.53;;;0.93;;
4819;SDS011;2424;49.696;6.630;2023-04-09T10:37:13;1.00;;;0.93;;
4819;SDS011;2424;49.696;6.630;2023-04-09T10:42:38;1.77;;;1.17;;
4819;SDS011;2424;49.696;6.630;2023-04-09T10:48:02;0.80;;;0.80;;
4819;SDS011;2424;49.696;6.630;2023-04-09T10:53:24;1.17;;;1.10;;
4819;SDS011;2424;49.696;6.630;2023-04-09T10:58:48;3.50;;;1.37;;
4819;SDS011;2424;49.696;6.630;2023-04-09T11:04:15;0.90;;;0.90;;
4819;SDS011;2424;49.696;6.630;2023-04-09T11:09:40;1.10;;;1.10;;
4819;SDS011;2424;49.696;6.630;2023-04-09T11:15:04;1.13;;;1.03;;
4819;SDS011;2424;49.696;6.630;2023-04-09T11:20:26;1.33;;;1.10;;
4819;SDS011;2424;49.696;6.630;2023-04-09T11:25:50;1.10;;;1.10;;
4819;SDS011;2424;49.696;6.630;2023-04-09T11:31:15;0.80;;;0.80;;
4819;SDS011;2424;49.696;6.630;2023-04-09T11:36:37;0.70;;;0.70;;
4819;SDS011;2424;49.696;6.630;2023-04-09T11:41:58;1.23;;;1.13;;
4819;SDS011;2424;49.696;6.630;2023-04-09T11:47:22;1.27;;;1.20;;
4819;SDS011;2424;49.696;6.630;2023-04-09T11:52:44;1.23;;;1.13;;
4819;SDS011;2424;49.696;6.630;2023-04-09T11:58:09;1.33;;;1.23;;
4819;SDS011;2424;49.696;6.630;2023-04-09T12:03:33;1.67;;;1.40;;
4819;SDS011;2424;49.696;6.630;2023-04-09T12:08:56;2.47;;;0.83;;
4819;SDS011;2424;49.696;6.630;2023-04-09T12:14:20;1.20;;;1.20;;
4819;SDS011;2424;49.696;6.630;2023-04-09T12:19:44;1.47;;;1.37;;
4819;SDS011;2424;49.696;6.630;2023-04-09T12:25:09;1.13;;;1.13;;
4819;SDS011;2424;49.696;6.630;2023-04-09T12:30:30;1.13;;;0.93;;
4819;SDS011;2424;49.696;6.630;2023-04-09T12:35:54;0.77;;;0.77;;
4819;SDS011;2424;49.696;6.630;2023-04-09T12:41:17;1.13;;;1.13;;
4819;SDS011;2424;49.696;6.630;2023-04-09T12:46:39;2.30;;;1.00;;
4819;SDS011;2424;49.696;6.630;2023-04-09T12:52:03;1.40;;;1.33;;
4819;SDS011;2424;49.696;6.630;2023-04-09T12:57:25;1.60;;;1.50;;
4819;SDS011;2424;49.696;6.630;2023-04-09T13:02:47;3.30;;;2.00;;
4819;SDS011;2424;49.696;6.630;2023-04-09T13:08:18;1.40;;;1.30;;
4819;SDS011;2424;49.696;6.630;2023-04-09T13:13:40;1.00;;;1.00;;
4819;SDS011;2424;49.696;6.630;2023-04-09T13:19:02;0.90;;;0.90;;
4819;SDS011;2424;49.696;6.630;2023-04-09T13:24:25;1.07;;;1.07;;
4819;SDS011;2424;49.696;6.630;2023-04-09T13:29:47;1.37;;;1.13;;
4819;SDS011;2424;49.696;6.630;2023-04-09T13:35:09;1.17;;;1.17;;
4819;SDS011;2424;49.696;6.630;2023-04-09T13:40:32;0.80;;;0.80;;
4819;SDS011;2424;49.696;6.630;2023-04-09T13:45:54;1.63;;;1.17;;
4819;SDS011;2424;49.696;6.630;2023-04-09T13:51:17;0.80;;;0.80;;
4819;SDS011;2424;49.696;6.630;2023-04-09T13:56:40;0.80;;;0.80;;
4819;SDS011;2424;49.696;6.630;2023-04-09T14:02:02;0.63;;;0.63;;
4819;SDS011;2424;49.696;6.630;2023-04-09T14:07:25;0.90;;;0.60;;
4819;SDS011;2424;49.696;6.630;2023-04-09T14:12:48;0.60;;;0.60;;
4819;SDS011;2424;49.696;6.630;2023-04-09T14:18:10;1.17;;;1.00;;
4819;SDS011;2424;49.696;6.630;2023-04-09T14:23:32;0.60;;;0.60;;
4819;SDS011;2424;49.696;6.630;2023-04-09T14:28:56;0.70;;;0.70;;
4819;SDS011;2424;49.696;6.630;2023-04-09T14:34:18;0.70;;;0.70;;
4819;SDS011;2424;49.696;6.630;2023-04-09T14:39:40;1.17;;;0.97;;
4819;SDS011;2424;49.696;6.630;2023-04-09T14:45:03;0.53;;;0.53;;
4819;SDS011;2424;49.696;6.630;2023-04-09T14:50:26;1.10;;;1.00;;
4819;SDS011;2424;49.696;6.630;2023-04-09T14:55:48;0.67;;;0.67;;
4819;SDS011;2424;49.696;6.630;2023-04-09T15:01:12;1.47;;;1.37;;
4819;SDS011;2424;49.696;6.630;2023-04-09T15:06:34;1.23;;;1.17;;
4819;SDS011;2424;49.696;6.630;2023-04-09T15:11:56;0.90;;;0.90;;
4819;SDS011;2424;49.696;6.630;2023-04-09T15:17:19;0.73;;;0.73;;
4819;SDS011;2424;49.696;6.630;2023-04-09T15:22:41;0.90;;;0.90;;
4819;SDS011;2424;49.696;6.630;2023-04-09T15:28:03;1.20;;;1.20;;
4819;SDS011;2424;49.696;6.630;2023-04-09T15:33:27;0.70;;;0.70;;
4819;SDS011;2424;49.696;6.630;2023-04-09T15:38:51;1.37;;;1.37;;
4819;SDS011;2424;49.696;6.630;2023-04-09T15:44:13;1.30;;;1.17;;
4819;SDS011;2424;49.696;6.630;2023-04-09T15:49:37;1.30;;;1.20;;
4819;SDS011;2424;49.696;6.630;2023-04-09T15:54:59;0.70;;;0.70;;
4819;SDS011;2424;49.696;6.630;2023-04-09T16:00:21;1.53;;;1.43;;
4819;SDS011;2424;49.696;6.630;2023-04-09T16:05:46;1.03;;;1.03;;
4819;SDS011;2424;49.696;6.630;2023-04-09T16:11:08;0.83;;;0.83;;
4819;SDS011;2424;49.696;6.630;2023-04-09T16:16:30;1.00;;;1.00;;
4819;SDS011;2424;49.696;6.630;2023-04-09T16:21:53;1.17;;;1.10;;
4819;SDS011;2424;49.696;6.630;2023-04-09T16:27:15;1.43;;;1.33;;
4819;SDS011;2424;49.696;6.630;2023-04-09T16:32:37;0.90;;;0.90;;
4819;SDS011;2424;49.696;6.630;2023-04-09T16:38:01;1.53;;;1.30;;
4819;SDS011;2424;49.696;6.630;2023-04-09T16:43:23;1.83;;;1.10;;
4819;SDS011;2424;49.696;6.630;2023-04-09T16:48:45;3.73;;;1.27;;
4819;SDS011;2424;49.696;6.630;2023-04-09T16:54:09;0.83;;;0.83;;
4819;SDS011;2424;49.696;6.630;2023-04-09T16:59:31;1.10;;;1.10;;
4819;SDS011;2424;49.696;6.630;2023-04-09T17:04:53;0.93;;;0.93;;
4819;SDS011;2424;49.696;6.630;2023-04-09T17:10:17;1.13;;;1.07;;
4819;SDS011;2424;49.696;6.630;2023-04-09T17:15:39;0.70;;;0.70;;
4819;SDS011;2424;49.696;6.630;2023-04-09T17:21:01;2.30;;;1.27;;
4819;SDS011;2424;49.696;6.630;2023-04-09T17:26:25;1.47;;;1.37;;
4819;SDS011;2424;49.696;6.630;2023-04-09T17:31:48;1.20;;;1.10;;
4819;SDS011;2424;49.696;6.630;2023-04-09T17:37:11;1.33;;;1.33;;
4819;SDS011;2424;49.696;6.630;2023-04-09T17:42:34;1.20;;;1.10;;
4819;SDS011;2424;49.696;6.630;2023-04-09T17:47:56;1.40;;;1.40;;
4819;SDS011;2424;49.696;6.630;2023-04-09T17:53:19;1.47;;;1.37;;
4819;SDS011;2424;49.696;6.630;2023-04-09T17:58:42;1.70;;;1.60;;
4819;SDS011;2424;49.696;6.630;2023-04-09T18:04:05;1.63;;;1.53;;
4819;SDS011;2424;49.696;6.630;2023-04-09T18:09:27;1.90;;;1.80;;
4819;SDS011;2424;49.696;6.630;2023-04-09T18:14:50;1.10;;;1.10;;
4819;SDS011;2424;49.696;6.630;2023-04-09T18:20:12;3.53;;;1.70;;
4819;SDS011;2424;49.696;6.630;2023-04-09T18:25:35;0.93;;;0.93;;
4819;SDS011;2424;49.696;6.630;2023-04-09T18:30:58;1.50;;;1.50;;
4819;SDS011;2424;49.696;6.630;2023-04-09T18:36:21;1.60;;;1.60;;
4819;SDS011;2424;49.696;6.630;2023-04-09T18:41:42;1.60;;;1.50;;
4819;SDS011;2424;49.696;6.630;2023-04-09T18:47:06;1.60;;;1.50;;
4819;SDS011;2424;49.696;6.630;2023-04-09T18:52:29;1.10;;;1.10;;
4819;SDS011;2424;49.696;6.630;2023-04-09T18:57:51;1.33;;;1.10;;
4819;SDS011;2424;49.696;6.630;2023-04-09T19:03:14;1.30;;;1.20;;
4819;SDS011;2424;49.696;6.630;2023-04-09T19:08:36;1.30;;;1.10;;
4819;SDS011;2424;49.696;6.630;2023-04-09T19:13:58;1.50;;;1.50;;
4819;SDS011;2424;49.696;6.630;2023-04-09T19:19:22;2.50;;;1.57;;
4819;SDS011;2424;49.696;6.630;2023-04-09T19:24:51;1.57;;;1.30;;
4819;SDS011;2424;49.696;6.630;2023-04-09T19:30:13;1.50;;;1.40;;
4819;SDS011;2424;49.696;6.630;2023-04-09T19:35:36;1.50;;;1.10;;
4819;SDS011;2424;49.696;6.630;2023-04-09T19:41:00;2.53;;;1.47;;
4819;SDS011;2424;49.696;6.630;2023-04-09T19:46:21;1.43;;;1.27;;
4819;SDS011;2424;49.696;6.630;2023-04-09T19:51:45;2.87;;;1.50;;
4819;SDS011;2424;49.696;6.630;2023-04-09T19:57:07;2.10;;;1.60;;
4819;SDS011;2424;49.696;6.630;2023-04-09T20:02:28;2.80;;;2.13;;
4819;SDS011;2424;49.696;6.630;2023-04-09T20:07:52;1.30;;;1.20;;
4819;SDS011;2424;49.696;6.630;2023-04-09T20:13:14;1.20;;;1.20;;
4819;SDS011;2424;49.696;6.630;2023-04-09T20:18:36;3.00;;;1.80;;
4819;SDS011;2424;49.696;6.630;2023-04-09T20:23:59;1.30;;;1.03;;
4819;SDS011;2424;49.696;6.630;2023-04-09T20:29:21;0.90;;;0.90;;
4819;SDS011;2424;49.696;6.630;2023-04-09T20:34:43;1.17;;;1.17;;
4819;SDS011;2424;49.696;6.630;2023-04-09T20:40:07;1.47;;;1.37;;
4819;SDS011;2424;49.696;6.630;2023-04-09T20:45:29;1.50;;;1.40;;
4819;SDS011;2424;49.696;6.630;2023-04-09T20:50:51;1.03;;;1.03;;
4819;SDS011;2424;49.696;6.630;2023-04-09T20:56:14;1.20;;;1.20;;
4819;SDS011;2424;49.696;6.630;2023-04-09T21:01:37;1.50;;;1.40;;
4819;SDS011;2424;49.696;6.630;2023-04-09T21:06:59;1.80;;;1.70;;
4819;SDS011;2424;49.696;6.630;2023-04-09T21:12:22;1.37;;;1.27;;
4819;SDS011;2424;49.696;6.630;2023-04-09T21:17:44;1.43;;;1.30;;
4819;SDS011;2424;49.696;6.630;2023-04-09T21:23:06;1.37;;;1.33;;
4819;SDS011;2424;49.696;6.630;2023-04-09T21:28:30;1.50;;;1.40;;
4819;SDS011;2424;49.696;6.630;2023-04-09T21:33:52;1.40;;;1.30;;
4819;SDS011;2424;49.696;6.630;2023-04-09T21:39:13;0.73;;;0.73;;
4819;SDS011;2424;49.696;6.630;2023-04-09T21:44:37;1.30;;;1.20;;
4819;SDS011;2424;49.696;6.630;2023-04-09T21:49:59;1.00;;;0.83;;
4819;SDS011;2424;49.696;6.630;2023-04-09T21:55:21;1.17;;;1.07;;
4819;SDS011;2424;49.696;6.630;2023-04-09T22:00:44;1.47;;;1.47;;
4819;SDS011;2424;49.696;6.630;2023-04-09T22:06:07;1.13;;;1.10;;
4819;SDS011;2424;49.696;6.630;2023-04-09T22:11:30;0.90;;;0.90;;
4819;SDS011;2424;49.696;6.630;2023-04-09T22:16:54;3.70;;;1.20;;
4819;SDS011;2424;49.696;6.630;2023-04-09T22:22:17;1.00;;;1.00;;
4819;SDS011;2424;49.696;6.630;2023-04-09T22:27:39;1.37;;;1.27;;
4819;SDS011;2424;49.696;6.630;2023-04-09T22:33:05;1.20;;;1.10;;
4819;SDS011;2424;49.696;6.630;2023-04-09T22:38:27;2.00;;;1.20;;
4819;SDS011;2424;49.696;6.630;2023-04-09T22:43:49;0.97;;;0.97;;
4819;SDS011;2424;49.696;6.630;2023-04-09T22:49:12;1.20;;;1.10;;
4819;SDS011;2424;49.696;6.630;2023-04-09T22:54:34;1.50;;;1.40;;
4819;SDS011;2424;49.696;6.630;2023-04-09T22:59:57;1.53;;;1.40;;
4819;SDS011;2424;49.696;6.630;2023-04-09T23:05:20;1.40;;;1.30;;
4819;SDS011;2424;49.696;6.630;2023-04-09T23:10:42;1.37;;;1.27;;
4819;SDS011;2424;49.696;6.630;2023-04-09T23:16:04;1.30;;;1.20;;
4819;SDS011;2424;49.696;6.630;2023-04-09T23:21:29;0.90;;;0.90;;
4819;SDS011;2424;49.696;6.630;2023-04-09T23:26:51;1.20;;;1.20;;
4819;SDS011;2424;49.696;6.630;2023-04-09T23:32:13;1.27;;;1.17;;
4819;SDS011;2424;49.696;6.630;2023-04-09T23:37:36;1.20;;;1.10;;
4819;SDS011;2424;49.696;6.630;2023-04-09T23:42:58;1.43;;;1.33;;
4819;SDS011;2424;49.696;6.630;2023-04-09T23:48:21;1.23;;;0.77;;
4819;SDS011;2424;49.696;6.630;2023-04-09T23:53:44;0.90;;;0.90;;
4819;SDS011;2424;49.696;6.630;2023-04-09T23:59:06;1.17;;;0.97;;
